Oasis, Idaho
Current Conditions -  °F | °C
As of 11:58 PM on Saturday 25 Oct 2014 (Local Time) from KMUO Reporting Station
Scattered Clouds Scattered Clouds  
Wind Chill: 59°   Ceiling: Unl
Heat Index: 59°   Visibility: 10mi
Dew Point: 30°   Wind: 9mph
Humidity: 33%   Direction: 240°WSW
Pressure: 29.9"   Gusts: NA
Location:  43.2609°N, 115.781°W
Report Text: KMUO 260558Z AUTO 24008KT 10SM SCT210 15/M01 A2990 RMK AO2 SLP111 T01511011 10241 20149 52025
Loading
Personal Weather Stations






























Interactive Weather Map
Tropical Storm Tracking
New forecast layout! Learn more

10-Day Weather Forecast

Advertisements
Track Severe Weather on mobile